sensor_id;sensor_type;location;lat;lon;timestamp;pressure;altitude;pressure_sealevel;temperature;humidity
59053;BME280;44843;44.728;10.396;2023-09-19T00:01:32;100234.19;;;22.48;nan
59053;BME280;44843;44.728;10.396;2023-09-19T00:03:58;100235.88;;;22.40;nan
59053;BME280;44843;44.728;10.396;2023-09-19T00:06:24;100235.72;;;22.34;nan
59053;BME280;44843;44.728;10.396;2023-09-19T00:08:54;100243.22;;;22.30;nan
59053;BME280;44843;44.728;10.396;2023-09-19T00:11:20;100245.19;;;22.36;nan
59053;BME280;44843;44.728;10.396;2023-09-19T00:13:47;100237.56;;;22.25;nan
59053;BME280;44843;44.728;10.396;2023-09-19T00:16:15;100237.91;;;22.30;nan
59053;BME280;44843;44.728;10.396;2023-09-19T00:18:40;100233.91;;;22.18;nan
59053;BME280;44843;44.728;10.396;2023-09-19T00:21:06;100232.06;;;22.18;nan
59053;BME280;44843;44.728;10.396;2023-09-19T00:23:32;100234.25;;;22.23;nan
59053;BME280;44843;44.728;10.396;2023-09-19T00:25:59;100241.22;;;22.08;nan
59053;BME280;44843;44.728;10.396;2023-09-19T00:28:24;100242.38;;;22.30;nan
59053;BME280;44843;44.728;10.396;2023-09-19T00:30:50;100239.38;;;22.16;nan
59053;BME280;44843;44.728;10.396;2023-09-19T00:33:15;100229.59;;;22.33;nan
59053;BME280;44843;44.728;10.396;2023-09-19T00:35:51;100227.22;;;22.47;nan
59053;BME280;44843;44.728;10.396;2023-09-19T00:38:17;100223.94;;;22.36;nan
59053;BME280;44843;44.728;10.396;2023-09-19T00:40:46;100222.09;;;22.45;nan
59053;BME280;44843;44.728;10.396;2023-09-19T00:43:12;100226.56;;;22.45;nan
59053;BME280;44843;44.728;10.396;2023-09-19T00:45:38;100226.72;;;22.43;nan
59053;BME280;44843;44.728;10.396;2023-09-19T00:48:04;100223.75;;;22.46;nan
59053;BME280;44843;44.728;10.396;2023-09-19T00:50:35;100225.59;;;22.46;nan
59053;BME280;44843;44.728;10.396;2023-09-19T00:53:00;100224.13;;;22.27;nan
59053;BME280;44843;44.728;10.396;2023-09-19T00:55:29;100224.97;;;22.27;nan
59053;BME280;44843;44.728;10.396;2023-09-19T00:57:56;100219.31;;;22.30;nan
59053;BME280;44843;44.728;10.396;2023-09-19T01:00:21;100211.53;;;22.29;nan
59053;BME280;44843;44.728;10.396;2023-09-19T01:02:48;100225.13;;;22.26;nan
59053;BME280;44843;44.728;10.396;2023-09-19T01:05:13;100216.34;;;22.09;nan
59053;BME280;44843;44.728;10.396;2023-09-19T01:07:39;100222.00;;;22.22;nan
59053;BME280;44843;44.728;10.396;2023-09-19T01:10:12;100221.34;;;21.95;nan
59053;BME280;44843;44.728;10.396;2023-09-19T01:12:44;100224.78;;;22.20;nan
59053;BME280;44843;44.728;10.396;2023-09-19T01:15:21;100218.31;;;22.23;nan
59053;BME280;44843;44.728;10.396;2023-09-19T01:17:59;100221.63;;;22.17;nan
59053;BME280;44843;44.728;10.396;2023-09-19T01:20:39;100219.97;;;22.08;nan
59053;BME280;44843;44.728;10.396;2023-09-19T01:24:16;100215.84;;;21.97;nan
59053;BME280;44843;44.728;10.396;2023-09-19T01:26:32;100212.19;;;21.98;nan
59053;BME280;44843;44.728;10.396;2023-09-19T01:29:42;100209.75;;;21.80;nan
59053;BME280;44843;44.728;10.396;2023-09-19T01:32:10;100200.91;;;21.79;nan
59053;BME280;44843;44.728;10.396;2023-09-19T01:34:49;100194.63;;;21.80;nan
59053;BME280;44843;44.728;10.396;2023-09-19T01:37:19;100186.50;;;21.74;nan
59053;BME280;44843;44.728;10.396;2023-09-19T01:39:47;100189.31;;;21.72;nan
59053;BME280;44843;44.728;10.396;2023-09-19T01:42:44;100190.00;;;21.74;nan
59053;BME280;44843;44.728;10.396;2023-09-19T01:45:18;100181.19;;;21.90;nan
59053;BME280;44843;44.728;10.396;2023-09-19T01:47:51;100186.00;;;21.87;nan
59053;BME280;44843;44.728;10.396;2023-09-19T01:53:10;100175.56;;;21.93;nan
59053;BME280;44843;44.728;10.396;2023-09-19T01:55:47;100172.22;;;21.75;nan
59053;BME280;44843;44.728;10.396;2023-09-19T02:01:01;100170.59;;;21.66;nan
59053;BME280;44843;44.728;10.396;2023-09-19T02:03:29;100172.09;;;21.52;nan
59053;BME280;44843;44.728;10.396;2023-09-19T02:05:55;100172.75;;;21.54;nan
59053;BME280;44843;44.728;10.396;2023-09-19T02:08:22;100169.91;;;21.55;nan
59053;BME280;44843;44.728;10.396;2023-09-19T02:10:49;100165.63;;;21.54;nan
59053;BME280;44843;44.728;10.396;2023-09-19T02:13:18;100163.63;;;21.56;nan
59053;BME280;44843;44.728;10.396;2023-09-19T02:15:47;100164.78;;;21.62;nan
59053;BME280;44843;44.728;10.396;2023-09-19T02:18:13;100156.00;;;21.62;nan
59053;BME280;44843;44.728;10.396;2023-09-19T02:20:39;100156.00;;;21.62;nan
59053;BME280;44843;44.728;10.396;2023-09-19T02:23:05;100154.66;;;21.57;nan
59053;BME280;44843;44.728;10.396;2023-09-19T02:25:30;100148.03;;;21.78;nan
59053;BME280;44843;44.728;10.396;2023-09-19T02:27:57;100159.78;;;21.84;nan
59053;BME280;44843;44.728;10.396;2023-09-19T02:30:24;100145.69;;;21.91;nan
59053;BME280;44843;44.728;10.396;2023-09-19T02:32:53;100147.16;;;22.02;nan
59053;BME280;44843;44.728;10.396;2023-09-19T02:35:18;100147.16;;;22.02;nan
59053;BME280;44843;44.728;10.396;2023-09-19T02:37:48;100149.97;;;22.00;nan
59053;BME280;44843;44.728;10.396;2023-09-19T02:40:14;100154.97;;;21.95;nan
59053;BME280;44843;44.728;10.396;2023-09-19T02:42:46;100154.94;;;22.04;nan
59053;BME280;44843;44.728;10.396;2023-09-19T02:45:13;100157.13;;;22.00;nan
59053;BME280;44843;44.728;10.396;2023-09-19T02:47:42;100141.44;;;22.30;nan
59053;BME280;44843;44.728;10.396;2023-09-19T02:50:08;100150.28;;;22.06;nan
59053;BME280;44843;44.728;10.396;2023-09-19T02:52:37;100154.13;;;21.95;nan
59053;BME280;44843;44.728;10.396;2023-09-19T02:55:03;100156.66;;;21.72;nan
59053;BME280;44843;44.728;10.396;2023-09-19T02:57:30;100160.16;;;21.56;nan
59053;BME280;44843;44.728;10.396;2023-09-19T02:59:59;100173.41;;;21.80;nan
59053;BME280;44843;44.728;10.396;2023-09-19T03:02:26;100175.25;;;21.80;nan
59053;BME280;44843;44.728;10.396;2023-09-19T03:04:53;100171.91;;;21.70;nan
59053;BME280;44843;44.728;10.396;2023-09-19T03:07:18;100177.38;;;21.60;nan
59053;BME280;44843;44.728;10.396;2023-09-19T03:09:44;100176.38;;;21.77;nan
59053;BME280;44843;44.728;10.396;2023-09-19T03:12:10;100175.72;;;21.75;nan
59053;BME280;44843;44.728;10.396;2023-09-19T03:14:35;100186.66;;;21.72;nan
59053;BME280;44843;44.728;10.396;2023-09-19T03:17:01;100176.53;;;21.51;nan
59053;BME280;44843;44.728;10.396;2023-09-19T03:19:30;100180.88;;;21.60;nan
59053;BME280;44843;44.728;10.396;2023-09-19T03:21:56;100183.50;;;21.69;nan
59053;BME280;44843;44.728;10.396;2023-09-19T03:24:22;100176.91;;;21.65;nan
59053;BME280;44843;44.728;10.396;2023-09-19T03:26:48;100189.00;;;21.59;nan
59053;BME280;44843;44.728;10.396;2023-09-19T03:29:14;100181.53;;;21.63;nan
59053;BME280;44843;44.728;10.396;2023-09-19T03:31:41;100193.47;;;21.50;nan
59053;BME280;44843;44.728;10.396;2023-09-19T03:34:06;100196.13;;;21.58;nan
59053;BME280;44843;44.728;10.396;2023-09-19T03:36:31;100188.00;;;21.52;nan
59053;BME280;44843;44.728;10.396;2023-09-19T03:38:59;100200.03;;;21.22;nan
59053;BME280;44843;44.728;10.396;2023-09-19T03:41:25;100195.13;;;21.43;nan
59053;BME280;44843;44.728;10.396;2023-09-19T03:43:50;100198.38;;;21.29;nan
59053;BME280;44843;44.728;10.396;2023-09-19T03:46:15;100202.59;;;21.56;nan
59053;BME280;44843;44.728;10.396;2023-09-19T03:48:41;100200.59;;;21.50;nan
59053;BME280;44843;44.728;10.396;2023-09-19T03:51:06;100198.09;;;21.48;nan
59053;BME280;44843;44.728;10.396;2023-09-19T03:53:31;100198.44;;;21.62;nan
59053;BME280;44843;44.728;10.396;2023-09-19T03:55:57;100201.94;;;21.46;nan
59053;BME280;44843;44.728;10.396;2023-09-19T03:58:22;100203.41;;;21.48;nan
59053;BME280;44843;44.728;10.396;2023-09-19T04:00:48;100196.47;;;21.64;nan
59053;BME280;44843;44.728;10.396;2023-09-19T04:03:15;100198.44;;;21.45;nan
59053;BME280;44843;44.728;10.396;2023-09-19T04:05:46;100195.63;;;21.47;nan
59053;BME280;44843;44.728;10.396;2023-09-19T04:08:13;100197.72;;;21.27;nan
59053;BME280;44843;44.728;10.396;2023-09-19T04:10:41;100198.53;;;21.27;nan
59053;BME280;44843;44.728;10.396;2023-09-19T04:13:06;100194.09;;;21.28;nan
59053;BME280;44843;44.728;10.396;2023-09-19T04:15:32;100193.56;;;21.24;nan
59053;BME280;44843;44.728;10.396;2023-09-19T04:17:58;100194.31;;;20.92;nan
59053;BME280;44843;44.728;10.396;2023-09-19T04:20:23;100200.34;;;21.10;nan
59053;BME280;44843;44.728;10.396;2023-09-19T04:22:49;100208.59;;;20.99;nan
59053;BME280;44843;44.728;10.396;2023-09-19T04:25:14;100204.88;;;20.84;nan
59053;BME280;44843;44.728;10.396;2023-09-19T04:27:39;100212.38;;;20.88;nan
59053;BME280;44843;44.728;10.396;2023-09-19T04:30:07;100209.72;;;20.88;nan
59053;BME280;44843;44.728;10.396;2023-09-19T04:32:38;100210.06;;;20.93;nan
59053;BME280;44843;44.728;10.396;2023-09-19T04:35:06;100208.78;;;21.14;nan
59053;BME280;44843;44.728;10.396;2023-09-19T04:37:32;100203.97;;;21.09;nan
59053;BME280;44843;44.728;10.396;2023-09-19T04:39:58;100200.72;;;21.24;nan
59053;BME280;44843;44.728;10.396;2023-09-19T04:42:23;100199.13;;;21.47;nan
59053;BME280;44843;44.728;10.396;2023-09-19T04:44:50;100198.75;;;21.67;nan
59053;BME280;44843;44.728;10.396;2023-09-19T04:47:19;100189.50;;;21.79;nan
59053;BME280;44843;44.728;10.396;2023-09-19T04:49:44;100182.19;;;21.81;nan
59053;BME280;44843;44.728;10.396;2023-09-19T04:52:09;100190.47;;;21.86;nan
59053;BME280;44843;44.728;10.396;2023-09-19T04:54:35;100190.50;;;21.78;nan
59053;BME280;44843;44.728;10.396;2023-09-19T04:57:00;100196.13;;;21.67;nan
59053;BME280;44843;44.728;10.396;2023-09-19T04:59:26;100211.31;;;21.40;nan
59053;BME280;44843;44.728;10.396;2023-09-19T05:01:52;100227.88;;;21.26;nan
59053;BME280;44843;44.728;10.396;2023-09-19T05:04:17;100227.03;;;21.17;nan
59053;BME280;44843;44.728;10.396;2023-09-19T05:06:43;100238.28;;;21.11;nan
59053;BME280;44843;44.728;10.396;2023-09-19T05:09:08;100236.13;;;21.06;nan
59053;BME280;44843;44.728;10.396;2023-09-19T05:11:33;100236.94;;;21.07;nan
59053;BME280;44843;44.728;10.396;2023-09-19T05:13:59;100239.59;;;21.07;nan
59053;BME280;44843;44.728;10.396;2023-09-19T05:16:29;100239.59;;;21.07;nan
59053;BME280;44843;44.728;10.396;2023-09-19T05:18:57;100241.97;;;20.84;nan
59053;BME280;44843;44.728;10.396;2023-09-19T05:21:23;100253.97;;;20.96;nan
59053;BME280;44843;44.728;10.396;2023-09-19T05:23:51;100262.69;;;20.80;nan
59053;BME280;44843;44.728;10.396;2023-09-19T05:26:17;100266.59;;;21.02;nan
59053;BME280;44843;44.728;10.396;2023-09-19T05:28:43;100263.75;;;20.95;nan
59053;BME280;44843;44.728;10.396;2023-09-19T05:31:08;100269.13;;;21.20;nan
59053;BME280;44843;44.728;10.396;2023-09-19T05:33:33;100282.16;;;21.05;nan
59053;BME280;44843;44.728;10.396;2023-09-19T05:35:59;100283.56;;;21.34;nan
59053;BME280;44843;44.728;10.396;2023-09-19T05:38:24;100284.09;;;21.37;nan
59053;BME280;44843;44.728;10.396;2023-09-19T05:40:51;100290.31;;;21.54;nan
59053;BME280;44843;44.728;10.396;2023-09-19T05:43:17;100286.50;;;21.73;nan
59053;BME280;44843;44.728;10.396;2023-09-19T05:45:43;100281.53;;;22.11;nan
59053;BME280;44843;44.728;10.396;2023-09-19T05:48:11;100285.72;;;21.97;nan
59053;BME280;44843;44.728;10.396;2023-09-19T05:50:39;100289.69;;;22.18;nan
59053;BME280;44843;44.728;10.396;2023-09-19T05:53:05;100289.00;;;22.49;nan
59053;BME280;44843;44.728;10.396;2023-09-19T05:55:31;100289.28;;;22.62;nan
59053;BME280;44843;44.728;10.396;2023-09-19T05:57:57;100295.63;;;22.61;nan
59053;BME280;44843;44.728;10.396;2023-09-19T06:00:23;100298.66;;;22.89;nan
59053;BME280;44843;44.728;10.396;2023-09-19T06:02:59;100304.78;;;23.06;nan
59053;BME280;44843;44.728;10.396;2023-09-19T06:05:26;100306.84;;;23.58;nan
59053;BME280;44843;44.728;10.396;2023-09-19T06:07:57;100311.75;;;23.70;nan
59053;BME280;44843;44.728;10.396;2023-09-19T06:10:26;100294.16;;;23.92;nan
59053;BME280;44843;44.728;10.396;2023-09-19T06:12:53;100294.63;;;24.18;nan
59053;BME280;44843;44.728;10.396;2023-09-19T06:15:20;100286.97;;;24.53;nan
59053;BME280;44843;44.728;10.396;2023-09-19T06:17:49;100281.28;;;24.71;nan
59053;BME280;44843;44.728;10.396;2023-09-19T06:20:15;100284.44;;;25.41;nan
59053;BME280;44843;44.728;10.396;2023-09-19T06:22:42;100279.09;;;27.58;nan
59053;BME280;44843;44.728;10.396;2023-09-19T06:25:12;100273.50;;;29.63;100.00
59053;BME280;44843;44.728;10.396;2023-09-19T06:27:41;100273.44;;;30.45;nan
59053;BME280;44843;44.728;10.396;2023-09-19T06:30:08;100281.31;;;31.02;nan
59053;BME280;44843;44.728;10.396;2023-09-19T06:32:34;100286.81;;;31.26;nan
59053;BME280;44843;44.728;10.396;2023-09-19T06:35:00;100292.78;;;28.03;nan
59053;BME280;44843;44.728;10.396;2023-09-19T06:37:29;100294.63;;;26.80;nan
59053;BME280;44843;44.728;10.396;2023-09-19T06:39:55;100294.28;;;26.55;100.00
59053;BME280;44843;44.728;10.396;2023-09-19T06:42:22;100292.34;;;26.70;nan
59053;BME280;44843;44.728;10.396;2023-09-19T06:44:48;100286.00;;;26.49;nan
59053;BME280;44843;44.728;10.396;2023-09-19T06:47:14;100295.97;;;26.97;nan
59053;BME280;44843;44.728;10.396;2023-09-19T06:49:41;100295.47;;;27.28;nan
59053;BME280;44843;44.728;10.396;2023-09-19T06:52:09;100281.41;;;28.21;nan
59053;BME280;44843;44.728;10.396;2023-09-19T06:54:34;100283.50;;;28.12;nan
59053;BME280;44843;44.728;10.396;2023-09-19T06:57:01;100292.38;;;26.48;nan
59053;BME280;44843;44.728;10.396;2023-09-19T06:59:26;100291.94;;;28.36;nan
59053;BME280;44843;44.728;10.396;2023-09-19T07:01:51;100297.56;;;29.00;nan
59053;BME280;44843;44.728;10.396;2023-09-19T07:04:17;100299.72;;;29.29;nan
59053;BME280;44843;44.728;10.396;2023-09-19T07:06:53;100291.03;;;30.66;nan
59053;BME280;44843;44.728;10.396;2023-09-19T07:09:19;100292.75;;;29.22;nan
59053;BME280;44843;44.728;10.396;2023-09-19T07:11:45;100291.63;;;32.19;nan
59053;BME280;44843;44.728;10.396;2023-09-19T07:14:10;100291.91;;;30.78;nan
59053;BME280;44843;44.728;10.396;2023-09-19T07:16:41;100289.97;;;32.66;nan
59053;BME280;44843;44.728;10.396;2023-09-19T07:19:09;100293.63;;;33.69;nan
59053;BME280;44843;44.728;10.396;2023-09-19T07:21:35;100299.50;;;31.37;nan
59053;BME280;44843;44.728;10.396;2023-09-19T07:24:04;100294.94;;;34.17;nan
59053;BME280;44843;44.728;10.396;2023-09-19T07:26:30;100301.88;;;31.15;nan
59053;BME280;44843;44.728;10.396;2023-09-19T07:28:56;100303.78;;;33.96;nan
59053;BME280;44843;44.728;10.396;2023-09-19T07:31:22;100301.09;;;31.98;nan
59053;BME280;44843;44.728;10.396;2023-09-19T07:33:48;100292.38;;;29.05;nan
59053;BME280;44843;44.728;10.396;2023-09-19T07:36:14;100301.19;;;28.20;nan
59053;BME280;44843;44.728;10.396;2023-09-19T07:38:40;100308.72;;;27.43;nan
59053;BME280;44843;44.728;10.396;2023-09-19T07:41:07;100304.75;;;27.26;nan
59053;BME280;44843;44.728;10.396;2023-09-19T07:43:35;100316.09;;;26.93;nan
59053;BME280;44843;44.728;10.396;2023-09-19T07:46:08;100318.44;;;27.03;nan
59053;BME280;44843;44.728;10.396;2023-09-19T07:48:37;100316.72;;;26.95;nan
59053;BME280;44843;44.728;10.396;2023-09-19T07:51:07;100321.19;;;26.53;nan
59053;BME280;44843;44.728;10.396;2023-09-19T07:53:33;100326.50;;;26.75;nan
59053;BME280;44843;44.728;10.396;2023-09-19T07:56:07;100321.81;;;26.83;nan
59053;BME280;44843;44.728;10.396;2023-09-19T07:58:33;100318.91;;;26.78;nan
59053;BME280;44843;44.728;10.396;2023-09-19T08:01:03;100326.22;;;26.41;nan
59053;BME280;44843;44.728;10.396;2023-09-19T08:03:29;100318.66;;;26.45;nan
59053;BME280;44843;44.728;10.396;2023-09-19T08:05:56;100316.75;;;26.10;nan
59053;BME280;44843;44.728;10.396;2023-09-19T08:08:23;100326.09;;;25.78;nan
59053;BME280;44843;44.728;10.396;2023-09-19T08:10:53;100320.53;;;25.80;nan
59053;BME280;44843;44.728;10.396;2023-09-19T08:13:18;100323.28;;;26.29;nan
59053;BME280;44843;44.728;10.396;2023-09-19T08:15:44;100326.50;;;26.46;nan
59053;BME280;44843;44.728;10.396;2023-09-19T08:18:10;100328.59;;;26.01;nan
59053;BME280;44843;44.728;10.396;2023-09-19T08:20:37;100323.31;;;26.58;nan
59053;BME280;44843;44.728;10.396;2023-09-19T08:23:03;100332.41;;;26.14;nan
59053;BME280;44843;44.728;10.396;2023-09-19T08:25:29;100323.19;;;26.44;nan
59053;BME280;44843;44.728;10.396;2023-09-19T08:27:55;100328.91;;;26.41;nan
59053;BME280;44843;44.728;10.396;2023-09-19T08:30:23;100324.31;;;26.28;nan
59053;BME280;44843;44.728;10.396;2023-09-19T08:32:57;100320.88;;;26.41;nan
59053;BME280;44843;44.728;10.396;2023-09-19T08:35:23;100326.41;;;26.33;nan
59053;BME280;44843;44.728;10.396;2023-09-19T08:37:49;100327.34;;;26.25;nan
59053;BME280;44843;44.728;10.396;2023-09-19T08:40:14;100321.53;;;26.43;nan
59053;BME280;44843;44.728;10.396;2023-09-19T08:42:54;100326.13;;;26.28;nan
59053;BME280;44843;44.728;10.396;2023-09-19T08:45:21;100321.31;;;26.17;nan
59053;BME280;44843;44.728;10.396;2023-09-19T08:48:05;100318.66;;;26.45;nan
59053;BME280;44843;44.728;10.396;2023-09-19T08:51:00;100312.34;;;26.52;nan
59053;BME280;44843;44.728;10.396;2023-09-19T08:56:16;100322.31;;;26.65;nan
59053;BME280;44843;44.728;10.396;2023-09-19T09:01:17;100328.78;;;26.49;nan
59053;BME280;44843;44.728;10.396;2023-09-19T09:03:49;100331.97;;;26.60;nan
59053;BME280;44843;44.728;10.396;2023-09-19T09:06:16;100326.91;;;26.50;nan
59053;BME280;44843;44.728;10.396;2023-09-19T09:08:43;100327.66;;;26.37;nan
59053;BME280;44843;44.728;10.396;2023-09-19T09:11:10;100326.88;;;26.43;nan
59053;BME280;44843;44.728;10.396;2023-09-19T09:13:36;100330.06;;;26.32;nan
59053;BME280;44843;44.728;10.396;2023-09-19T09:16:02;100334.22;;;26.63;nan
59053;BME280;44843;44.728;10.396;2023-09-19T09:18:28;100335.78;;;26.79;nan
59053;BME280;44843;44.728;10.396;2023-09-19T09:20:57;100340.97;;;26.87;nan
59053;BME280;44843;44.728;10.396;2023-09-19T09:23:22;100329.59;;;26.78;nan
59053;BME280;44843;44.728;10.396;2023-09-19T09:25:49;100338.81;;;26.69;nan
59053;BME280;44843;44.728;10.396;2023-09-19T09:28:23;100340.38;;;26.07;nan
59053;BME280;44843;44.728;10.396;2023-09-19T09:30:49;100336.94;;;26.41;nan
59053;BME280;44843;44.728;10.396;2023-09-19T09:33:15;100341.53;;;25.98;nan
59053;BME280;44843;44.728;10.396;2023-09-19T09:35:49;100333.91;;;26.23;nan
59053;BME280;44843;44.728;10.396;2023-09-19T09:38:21;100328.13;;;26.47;nan
59053;BME280;44843;44.728;10.396;2023-09-19T09:40:51;100330.44;;;26.22;nan
59053;BME280;44843;44.728;10.396;2023-09-19T09:43:27;100323.56;;;26.69;nan
59053;BME280;44843;44.728;10.396;2023-09-19T09:48:55;100328.66;;;26.58;nan
59053;BME280;44843;44.728;10.396;2023-09-19T09:51:40;100330.06;;;26.32;nan
59053;BME280;44843;44.728;10.396;2023-09-19T09:54:18;100327.63;;;26.59;nan
59053;BME280;44843;44.728;10.396;2023-09-19T09:59:22;100329.84;;;26.27;nan
59053;BME280;44843;44.728;10.396;2023-09-19T10:01:49;100324.09;;;26.30;nan
59053;BME280;44843;44.728;10.396;2023-09-19T10:04:35;100322.09;;;26.60;nan
59053;BME280;44843;44.728;10.396;2023-09-19T10:07:29;100323.00;;;26.18;nan
59053;BME280;44843;44.728;10.396;2023-09-19T10:10:01;100316.44;;;26.48;nan
59053;BME280;44843;44.728;10.396;2023-09-19T10:12:38;100313.88;;;26.97;nan
59053;BME280;44843;44.728;10.396;2023-09-19T10:15:06;100312.22;;;27.02;nan
59053;BME280;44843;44.728;10.396;2023-09-19T10:17:34;100316.81;;;27.15;nan
59053;BME280;44843;44.728;10.396;2023-09-19T10:20:01;100321.91;;;27.03;nan
59053;BME280;44843;44.728;10.396;2023-09-19T10:22:34;100327.63;;;26.93;nan
59053;BME280;44843;44.728;10.396;2023-09-19T10:25:04;100322.19;;;26.80;nan
59053;BME280;44843;44.728;10.396;2023-09-19T10:27:32;100322.56;;;26.70;nan
59053;BME280;44843;44.728;10.396;2023-09-19T10:30:05;100318.31;;;26.83;nan
59053;BME280;44843;44.728;10.396;2023-09-19T10:32:32;100329.69;;;26.98;nan
59053;BME280;44843;44.728;10.396;2023-09-19T10:35:01;100327.31;;;27.10;nan
59053;BME280;44843;44.728;10.396;2023-09-19T10:37:27;100316.28;;;26.91;nan
59053;BME280;44843;44.728;10.396;2023-09-19T10:39:56;100317.56;;;26.96;nan
59053;BME280;44843;44.728;10.396;2023-09-19T10:42:23;100307.50;;;27.04;nan
59053;BME280;44843;44.728;10.396;2023-09-19T10:44:52;100317.38;;;27.04;nan
59053;BME280;44843;44.728;10.396;2023-09-19T10:47:20;100307.53;;;26.69;nan
59053;BME280;44843;44.728;10.396;2023-09-19T10:49:49;100303.31;;;26.88;nan
59053;BME280;44843;44.728;10.396;2023-09-19T10:52:18;100304.66;;;27.12;nan
59053;BME280;44843;44.728;10.396;2023-09-19T10:54:48;100301.13;;;26.99;nan
59053;BME280;44843;44.728;10.396;2023-09-19T10:57:23;100299.34;;;26.78;nan
59053;BME280;44843;44.728;10.396;2023-09-19T11:00:06;100296.31;;;26.81;nan
59053;BME280;44843;44.728;10.396;2023-09-19T11:06:00;100299.53;;;27.18;nan
59053;BME280;44843;44.728;10.396;2023-09-19T11:08:26;100293.34;;;27.10;nan
59053;BME280;44843;44.728;10.396;2023-09-19T11:10:52;100290.47;;;27.12;nan
59053;BME280;44843;44.728;10.396;2023-09-19T11:13:28;100292.41;;;27.25;nan
59053;BME280;44843;44.728;10.396;2023-09-19T11:26:44;100286.19;;;27.24;nan
59053;BME280;44843;44.728;10.396;2023-09-19T11:29:26;100281.47;;;26.85;nan
59053;BME280;44843;44.728;10.396;2023-09-19T11:31:52;100281.78;;;26.62;nan
59053;BME280;44843;44.728;10.396;2023-09-19T11:37:02;100280.09;;;26.96;nan
59053;BME280;44843;44.728;10.396;2023-09-19T11:39:31;100280.13;;;27.02;nan
59053;BME280;44843;44.728;10.396;2023-09-19T11:41:58;100288.75;;;26.98;nan
59053;BME280;44843;44.728;10.396;2023-09-19T11:46:53;100281.25;;;27.21;nan
59053;BME280;44843;44.728;10.396;2023-09-19T11:49:26;100270.91;;;27.05;nan
59053;BME280;44843;44.728;10.396;2023-09-19T11:51:55;100279.41;;;27.22;nan
59053;BME280;44843;44.728;10.396;2023-09-19T11:54:20;100267.59;;;27.03;nan
59053;BME280;44843;44.728;10.396;2023-09-19T11:56:57;100267.47;;;27.31;nan
59053;BME280;44843;44.728;10.396;2023-09-19T11:59:24;100270.81;;;27.40;nan
59053;BME280;44843;44.728;10.396;2023-09-19T12:01:54;100257.66;;;27.51;nan
59053;BME280;44843;44.728;10.396;2023-09-19T12:04:41;100258.72;;;27.70;nan
59053;BME280;44843;44.728;10.396;2023-09-19T12:07:10;100260.16;;;27.73;nan
59053;BME280;44843;44.728;10.396;2023-09-19T12:10:02;100259.53;;;27.78;nan
59053;BME280;44843;44.728;10.396;2023-09-19T12:12:28;100261.16;;;27.52;nan
59053;BME280;44843;44.728;10.396;2023-09-19T12:14:56;100251.25;;;27.39;nan
59053;BME280;44843;44.728;10.396;2023-09-19T12:17:35;100242.66;;;27.70;nan
59053;BME280;44843;44.728;10.396;2023-09-19T12:20:01;100237.50;;;27.82;nan
59053;BME280;44843;44.728;10.396;2023-09-19T12:22:45;100230.28;;;27.83;nan
59053;BME280;44843;44.728;10.396;2023-09-19T12:25:14;100228.25;;;27.91;nan
59053;BME280;44843;44.728;10.396;2023-09-19T12:27:46;100226.19;;;27.87;nan
59053;BME280;44843;44.728;10.396;2023-09-19T12:30:13;100219.81;;;27.88;nan
59053;BME280;44843;44.728;10.396;2023-09-19T12:32:48;100227.59;;;27.76;nan
59053;BME280;44843;44.728;10.396;2023-09-19T12:35:47;100217.31;;;27.80;nan
59053;BME280;44843;44.728;10.396;2023-09-19T12:38:25;100223.91;;;27.84;nan
59053;BME280;44843;44.728;10.396;2023-09-19T12:40:56;100226.97;;;27.81;nan
59053;BME280;44843;44.728;10.396;2023-09-19T12:43:24;100218.31;;;27.79;nan
59053;BME280;44843;44.728;10.396;2023-09-19T12:45:50;100224.31;;;27.74;nan
59053;BME280;44843;44.728;10.396;2023-09-19T12:48:25;100219.38;;;27.71;nan
59053;BME280;44843;44.728;10.396;2023-09-19T12:51:06;100211.72;;;27.74;nan
59053;BME280;44843;44.728;10.396;2023-09-19T12:56:05;100215.88;;;27.70;nan
59053;BME280;44843;44.728;10.396;2023-09-19T12:58:34;100214.81;;;27.78;nan
59053;BME280;44843;44.728;10.396;2023-09-19T13:01:00;100211.94;;;27.60;nan
59053;BME280;44843;44.728;10.396;2023-09-19T13:03:27;100210.72;;;27.69;nan
59053;BME280;44843;44.728;10.396;2023-09-19T13:06:03;100204.75;;;27.73;nan
59053;BME280;44843;44.728;10.396;2023-09-19T13:08:34;100207.44;;;27.93;nan
59053;BME280;44843;44.728;10.396;2023-09-19T13:11:14;100197.97;;;27.91;nan
59053;BME280;44843;44.728;10.396;2023-09-19T13:13:51;100201.63;;;28.17;nan
59053;BME280;44843;44.728;10.396;2023-09-19T13:16:21;100210.09;;;28.00;nan
59053;BME280;44843;44.728;10.396;2023-09-19T13:18:50;100201.66;;;28.10;nan
59053;BME280;44843;44.728;10.396;2023-09-19T13:21:31;100205.94;;;28.24;nan
59053;BME280;44843;44.728;10.396;2023-09-19T13:24:20;100195.88;;;28.13;nan
59053;BME280;44843;44.728;10.396;2023-09-19T13:26:46;100202.03;;;28.13;nan
59053;BME280;44843;44.728;10.396;2023-09-19T13:29:12;100193.38;;;28.18;nan
59053;BME280;44843;44.728;10.396;2023-09-19T13:31:37;100199.34;;;28.13;nan
59053;BME280;44843;44.728;10.396;2023-09-19T13:34:07;100201.25;;;27.93;nan
59053;BME280;44843;44.728;10.396;2023-09-19T13:36:32;100200.63;;;27.91;nan
59053;BME280;44843;44.728;10.396;2023-09-19T13:38:58;100194.03;;;28.00;nan
59053;BME280;44843;44.728;10.396;2023-09-19T13:41:25;100193.41;;;28.05;nan
59053;BME280;44843;44.728;10.396;2023-09-19T13:43:51;100200.63;;;27.98;nan
59053;BME280;44843;44.728;10.396;2023-09-19T13:46:16;100193.41;;;28.05;nan
59053;BME280;44843;44.728;10.396;2023-09-19T13:48:43;100196.09;;;27.98;nan